Time;durP1;ratioP1;P1;durP2;ratioP2;P2;SDS_P1;SDS_P2;PMS_P1;PMS_P2;Temp;Humidity;BMP_temperature;BMP_pressure;BME280_temperature;BME280_humidity;BME280_pressure;Samples;Min_cycle;Max_cycle;Signal;HPM_P1;HPM_P2
2022/07/20 00:01:02;;;;;;;2.65;1.42;;;;;;;19.29;61.94;95038.25;5032307;28;20719;-61
2022/07/20 00:03:29;;;;;;;1.75;1.35;;;;;;;19.37;60.76;95056.28;5031951;28;20273;-61
2022/07/20 00:05:55;;;;;;;1.45;1.27;;;;;;;19.13;63.17;95034.03;5031581;28;20202;-61
2022/07/20 00:11:20;;;;;;;1.38;1.27;;;;;;;19.05;61.96;95056.47;5031646;28;20297;-62
2022/07/20 00:13:48;;;;;;;1.58;1.48;;;;;;;18.79;63.23;95037.94;5030944;28;20722;-61
2022/07/20 00:16:14;;;;;;;2.28;1.40;;;;;;;18.84;63.11;95046.00;5031438;28;20225;-61
2022/07/20 00:18:39;;;;;;;1.63;1.52;;;;;;;18.66;63.78;95037.72;5031804;28;20264;-61
2022/07/20 00:21:05;;;;;;;2.50;1.60;;;;;;;18.48;64.95;95032.03;5031407;28;20311;-61
2022/07/20 00:23:31;;;;;;;1.92;1.40;;;;;;;18.41;65.50;95031.84;5031763;28;20201;-64
2022/07/20 00:25:57;;;;;;;1.92;1.60;;;;;;;18.35;66.12;95040.25;5031355;28;20228;-61
2022/07/20 00:28:22;;;;;;;4.68;1.60;;;;;;;18.34;66.15;95034.28;5031610;28;20198;-62
2022/07/20 00:30:47;;;;;;;3.17;1.30;;;;;;;18.24;67.83;95020.03;5013381;28;20222;-61
2022/07/20 00:33:13;;;;;;;2.50;1.40;;;;;;;18.25;68.22;95029.34;5031265;28;20277;-62
2022/07/20 00:35:38;;;;;;;5.13;1.90;;;;;;;18.18;68.38;95043.88;5031129;28;20259;-60
2022/07/20 00:38:04;;;;;;;8.20;1.77;;;;;;;18.15;68.82;95042.41;5030827;28;20649;-61
2022/07/20 00:40:30;;;;;;;1.92;1.60;;;;;;;18.18;69.24;95042.06;5031329;28;20337;-60
2022/07/20 00:42:55;;;;;;;4.13;1.30;;;;;;;18.12;68.94;95053.03;5031403;28;20653;-61
2022/07/20 00:45:20;;;;;;;6.38;1.55;;;;;;;18.12;69.79;95042.75;5031029;28;20210;-61
2022/07/20 00:47:47;;;;;;;5.07;1.52;;;;;;;18.08;70.15;95048.41;5031193;28;20637;-61
2022/07/20 00:50:14;;;;;;;3.60;1.55;;;;;;;18.25;69.69;95063.63;5030943;28;20209;-61
2022/07/20 00:52:40;;;;;;;1.50;1.40;;;;;;;18.07;70.91;95047.59;5030770;28;20201;-59
2022/07/20 00:55:07;;;;;;;1.48;1.38;;;;;;;18.09;70.84;95052.56;5029472;28;20189;-60
2022/07/20 00:57:33;;;;;;;1.50;1.40;;;;;;;18.12;70.82;95060.75;5031137;28;20217;-60
2022/07/20 00:59:59;;;;;;;2.33;1.55;;;;;;;18.01;71.83;95055.16;5030863;28;20182;-61
2022/07/20 01:02:25;;;;;;;2.83;1.83;;;;;;;17.96;72.33;95055.66;5031027;28;20198;-62
2022/07/20 01:04:51;;;;;;;2.40;1.60;;;;;;;17.96;72.43;95063.38;5030722;28;20193;-60
2022/07/20 01:07:18;;;;;;;3.38;1.40;;;;;;;18.18;72.10;95059.31;5030662;28;20285;-62
2022/07/20 01:09:44;;;;;;;1.77;1.45;;;;;;;18.22;71.17;95079.38;5030858;28;20178;-61
2022/07/20 01:12:11;;;;;;;2.90;2.10;;;;;;;18.17;70.51;95091.16;5030727;28;20301;-61
2022/07/20 01:14:37;;;;;;;1.63;1.50;;;;;;;18.14;71.89;95061.38;5031023;28;20261;-61
2022/07/20 01:17:03;;;;;;;2.25;1.50;;;;;;;18.13;70.33;95085.53;5030604;28;20581;-61
2022/07/20 01:19:29;;;;;;;1.67;1.42;;;;;;;18.14;70.65;95073.47;5012788;28;20585;-60
2022/07/20 01:21:55;;;;;;;3.08;1.40;;;;;;;18.25;70.46;95076.50;5030289;28;20241;-62
2022/07/20 01:24:20;;;;;;;2.75;1.45;;;;;;;18.23;71.05;95069.91;5030728;28;20218;-61
2022/07/20 01:26:46;;;;;;;1.73;1.48;;;;;;;18.22;71.45;95065.72;5030044;28;20205;-61
2022/07/20 01:29:14;;;;;;;3.20;1.90;;;;;;;18.25;71.11;95067.97;5030373;28;20264;-60
2022/07/20 01:31:40;;;;;;;4.63;1.88;;;;;;;18.38;69.70;95094.78;5012525;28;20310;-60
2022/07/20 01:34:06;;;;;;;2.38;1.60;;;;;;;18.33;69.96;95081.63;5030560;28;20269;-61
2022/07/20 01:36:32;;;;;;;1.90;1.70;;;;;;;18.25;70.97;95071.34;5030212;28;20213;-61
2022/07/20 01:38:57;;;;;;;1.80;1.52;;;;;;;18.30;69.34;95092.22;5030264;28;20189;-61
2022/07/20 01:41:23;;;;;;;2.95;1.58;;;;;;;18.14;70.14;95069.13;5030211;28;20712;-61
2022/07/20 01:43:49;;;;;;;3.50;1.63;;;;;;;18.23;69.29;95075.03;5030732;28;20637;-61
2022/07/20 01:46:14;;;;;;;1.92;1.58;;;;;;;18.12;70.76;95060.75;5030117;28;20697;-61
2022/07/20 01:48:40;;;;;;;2.63;1.60;;;;;;;18.10;70.69;95054.97;5030607;28;20242;-61
2022/07/20 01:51:06;;;;;;;1.50;1.40;;;;;;;18.14;70.91;95053.66;5029865;28;20218;-60
2022/07/20 01:53:32;;;;;;;1.52;1.42;;;;;;;18.10;71.24;95057.53;5030467;28;20193;-60
2022/07/20 01:55:57;;;;;;;4.22;1.38;;;;;;;17.97;72.27;95039.25;5029934;28;20721;-61
2022/07/20 01:58:23;;;;;;;1.65;1.55;;;;;;;18.08;71.61;95056.13;5030101;28;20186;-61
2022/07/20 02:00:49;;;;;;;1.88;1.60;;;;;;;17.97;72.06;95049.56;5029894;28;20229;-60
2022/07/20 02:03:15;;;;;;;3.38;1.80;;;;;;;17.91;72.89;95036.53;5029983;28;20720;-60
2022/07/20 02:05:41;;;;;;;5.50;2.17;;;;;;;17.78;73.77;95033.66;5029875;28;20214;-61
2022/07/20 02:08:07;;;;;;;1.33;1.23;;;;;;;17.79;74.06;95032.72;5030254;28;20659;-61
2022/07/20 02:10:33;;;;;;;1.85;1.58;;;;;;;17.88;73.51;95040.25;5029709;28;20735;-61
2022/07/20 02:12:58;;;;;;;1.77;1.65;;;;;;;17.90;72.21;95078.66;5030183;28;20178;-60
2022/07/20 02:18:16;;;;;;;2.40;1.60;;;;;;;17.82;72.08;95076.91;4991737;28;20627;-61
2022/07/20 02:20:42;;;;;;;2.10;1.38;;;;;;;17.98;72.14;95086.34;5029615;28;20218;-61
2022/07/20 02:23:09;;;;;;;1.80;1.50;;;;;;;17.92;72.23;95081.88;5029885;28;20190;-60
2022/07/20 02:25:37;;;;;;;2.58;1.25;;;;;;;17.98;71.74;95097.47;5029609;28;20202;-60
2022/07/20 02:28:07;;;;;;;2.97;1.48;;;;;;;18.11;70.93;95100.34;5029941;28;20260;-61
2022/07/20 02:30:33;;;;;;;1.50;1.40;;;;;;;18.06;70.17;95127.53;5029629;28;20198;-61
2022/07/20 02:32:58;;;;;;;2.75;1.50;;;;;;;17.95;70.72;95099.56;5029942;28;20194;-61
2022/07/20 02:35:24;;;;;;;3.95;1.67;;;;;;;17.82;71.50;95087.19;5029656;28;20581;-61
2022/07/20 02:37:49;;;;;;;2.47;1.58;;;;;;;17.66;71.86;95071.78;5031398;28;20202;-61
2022/07/20 02:40:15;;;;;;;2.72;1.50;;;;;;;17.38;73.27;95049.91;5032956;28;20196;-61
2022/07/20 02:42:41;;;;;;;2.30;1.55;;;;;;;17.30;73.98;95045.59;5032904;28;20218;-61
2022/07/20 02:45:07;;;;;;;2.45;1.52;;;;;;;17.31;73.73;95046.41;5032951;28;20631;-60
2022/07/20 02:47:42;;;;;;;3.65;1.63;;;;;;;17.29;74.16;95053.47;5032923;28;20645;-60
2022/07/20 02:50:08;;;;;;;1.85;1.20;;;;;;;17.24;74.04;95064.22;5032804;28;20261;-62
2022/07/20 02:52:33;;;;;;;3.20;1.63;;;;;;;17.26;74.27;95061.50;5032705;28;20244;-60
2022/07/20 02:54:59;;;;;;;3.67;1.52;;;;;;;17.35;73.71;95078.53;5032685;28;20664;-62
2022/07/20 02:57:24;;;;;;;1.60;1.50;;;;;;;17.33;74.36;95063.25;5032593;28;20252;-61
2022/07/20 02:59:50;;;;;;;3.00;1.70;;;;;;;17.43;73.89;95075.97;5032638;28;20252;-61
2022/07/20 03:02:16;;;;;;;2.88;1.48;;;;;;;17.51;73.46;95088.84;5032543;28;20768;-60
2022/07/20 03:04:41;;;;;;;4.28;1.45;;;;;;;17.50;73.09;95092.38;5032642;28;20183;-61
2022/07/20 03:07:06;;;;;;;3.47;1.60;;;;;;;17.51;72.99;95094.00;5032531;28;20213;-61
2022/07/20 03:09:32;;;;;;;2.22;1.63;;;;;;;17.54;73.14;95084.19;5032434;28;20688;-62
2022/07/20 03:11:57;;;;;;;3.60;1.83;;;;;;;17.54;73.81;95073.91;5032334;28;20253;-62
2022/07/20 03:14:23;;;;;;;3.80;1.90;;;;;;;17.61;73.10;95090.25;5032390;28;20244;-62
2022/07/20 03:16:51;;;;;;;5.30;2.00;;;;;;;17.57;72.99;95088.19;5032301;28;20225;-61
2022/07/20 03:19:17;;;;;;;3.65;2.00;;;;;;;17.53;74.12;95077.41;5032399;28;20193;-61
2022/07/20 03:21:43;;;;;;;7.72;1.70;;;;;;;17.57;73.45;95093.34;5052665;22;20263;-62
2022/07/20 03:24:08;;;;;;;4.80;1.70;;;;;;;17.81;74.06;95084.78;5052248;28;20204;-61
2022/07/20 03:26:33;;;;;;;3.55;1.77;;;;;;;17.88;73.33;95099.41;5052119;28;20636;-62
2022/07/20 03:28:59;;;;;;;3.90;2.40;;;;;;;17.89;73.11;95111.31;5052247;28;20211;-61
2022/07/20 03:31:31;;;;;;;3.13;1.70;;;;;;;17.91;73.45;95098.28;5052277;28;20214;-62
2022/07/20 03:33:57;;;;;;;2.20;1.70;;;;;;;17.73;74.38;95093.34;5051971;28;20198;-61
2022/07/20 03:36:22;;;;;;;2.97;1.90;;;;;;;17.81;74.10;95098.47;5033881;28;20232;-61
2022/07/20 03:38:48;;;;;;;3.75;2.55;;;;;;;17.68;75.45;95077.56;5051874;28;20272;-61
2022/07/20 03:41:13;;;;;;;3.55;2.15;;;;;;;17.44;75.75;95080.13;5052159;28;20206;-61
2022/07/20 03:43:38;;;;;;;5.85;2.72;;;;;;;17.43;75.42;95089.59;5052045;28;20258;-61
2022/07/20 03:46:04;;;;;;;4.07;2.53;;;;;;;17.35;75.61;95092.16;5052048;28;20206;-62
2022/07/20 03:48:29;;;;;;;5.78;2.72;;;;;;;17.38;75.43;95093.63;5033860;28;20185;-61
2022/07/20 03:50:55;;;;;;;7.03;3.10;;;;;;;17.57;75.63;95090.78;5033888;28;20232;-61
2022/07/20 03:53:21;;;;;;;5.18;2.53;;;;;;;17.63;75.47;95097.84;5051692;28;20204;-61
2022/07/20 03:55:46;;;;;;;3.45;3.08;;;;;;;17.46;75.24;95101.34;5051709;28;20217;-60
2022/07/20 03:58:11;;;;;;;5.63;2.75;;;;;;;17.29;76.25;95090.22;5051788;28;20185;-61
2022/07/20 04:00:37;;;;;;;4.38;2.63;;;;;;;17.20;77.49;95069.84;5051519;28;20240;-61
2022/07/20 04:03:02;;;;;;;4.50;2.90;;;;;;;17.30;77.94;95073.88;5051641;28;20268;-61
2022/07/20 04:05:28;;;;;;;5.53;2.85;;;;;;;17.56;76.94;95092.53;5043789;22;21635;-61
2022/07/20 04:07:53;;;;;;;3.33;2.58;;;;;;;17.56;77.76;95086.56;5071816;28;20193;-61
2022/07/20 04:10:19;;;;;;;6.78;3.28;;;;;;;17.38;77.36;95088.47;5071288;28;20296;-61
2022/07/20 04:12:45;;;;;;;5.65;3.13;;;;;;;17.29;78.23;95076.59;5071453;28;20274;-60
2022/07/20 04:15:11;;;;;;;7.40;3.17;;;;;;;17.32;78.35;95082.22;5071717;28;20197;-60
2022/07/20 04:17:40;;;;;;;6.15;3.08;;;;;;;17.48;77.79;95089.13;5071583;28;20566;-61
2022/07/20 04:20:06;;;;;;;6.82;3.50;;;;;;;17.63;77.14;95108.13;5071289;28;20651;-61
2022/07/20 04:22:31;;;;;;;6.57;3.53;;;;;;;17.55;76.49;95106.34;5071483;28;20231;-61
2022/07/20 04:24:57;;;;;;;6.32;3.10;;;;;;;17.48;78.17;95089.13;5053431;28;20644;-61
2022/07/20 04:27:23;;;;;;;6.65;3.30;;;;;;;17.62;78.07;95093.66;5071335;28;20191;-61
2022/07/20 04:29:48;;;;;;;3.97;3.20;;;;;;;17.55;78.22;95090.91;5071107;28;20685;-61
2022/07/20 04:32:14;;;;;;;8.90;3.38;;;;;;;17.42;77.75;95105.19;5053059;28;20718;-61
2022/07/20 04:34:39;;;;;;;4.68;3.20;;;;;;;17.48;77.60;95096.84;5071116;28;20185;-61
2022/07/20 04:37:05;;;;;;;7.85;3.22;;;;;;;17.48;78.28;95101.97;5071524;28;20675;-61
2022/07/20 04:39:31;;;;;;;5.30;3.47;;;;;;;17.29;78.74;95087.66;5071054;28;20193;-61
2022/07/20 04:41:57;;;;;;;7.78;3.38;;;;;;;17.90;82.74;95115.47;5071310;28;20223;-62
2022/07/20 04:44:22;;;;;;;5.18;3.13;;;;;;;18.44;82.68;95125.03;5071076;28;20211;-62
2022/07/20 04:46:47;;;;;;;5.80;3.60;;;;;;;18.78;80.71;95129.09;5071153;28;20213;-63
2022/07/20 04:49:13;;;;;;;6.40;3.15;;;;;;;19.08;78.69;95146.34;5070925;28;20280;-63
2022/07/20 04:51:39;;;;;;;10.38;3.60;;;;;;;19.32;73.24;95231.28;5052522;28;20220;-63
2022/07/20 04:54:05;;;;;;;9.82;3.42;;;;;;;19.55;75.06;95188.34;5070828;28;20189;-62
2022/07/20 04:56:31;;;;;;;8.95;3.47;;;;;;;19.79;74.63;95206.22;5070685;28;20715;-62
2022/07/20 04:58:56;;;;;;;5.63;3.80;;;;;;;19.78;71.15;95247.66;5070849;28;20200;-63
2022/07/20 05:01:23;;;;;;;7.53;3.58;;;;;;;19.73;71.05;95247.38;5070127;28;20208;-62
2022/07/20 05:03:49;;;;;;;6.65;3.20;;;;;;;19.90;71.65;95234.19;5070823;28;20204;-62
2022/07/20 05:06:15;;;;;;;7.70;3.70;;;;;;;19.91;71.23;95240.97;5052701;28;20201;-63
2022/07/20 05:08:41;;;;;;;5.50;4.15;;;;;;;20.13;72.63;95220.47;5052516;28;20192;-62
2022/07/20 05:11:06;;;;;;;7.40;4.32;;;;;;;20.13;72.85;95203.22;5070760;28;20588;-62
2022/07/20 05:13:38;;;;;;;10.70;5.40;;;;;;;20.15;74.48;95169.47;5052582;28;20679;-63
2022/07/20 05:16:04;;;;;;;12.27;4.43;;;;;;;20.44;68.81;95298.69;5070604;28;20699;-62
2022/07/20 05:18:29;;;;;;;12.32;3.50;;;;;;;20.58;67.75;95318.59;5070459;28;20196;-62
2022/07/20 05:20:56;;;;;;;9.02;3.72;;;;;;;20.80;71.26;95237.63;5070557;28;20209;-62
2022/07/20 05:23:22;;;;;;;8.07;4.38;;;;;;;20.97;70.19;95264.91;5070400;28;20192;-63
2022/07/20 05:25:49;;;;;;;6.10;4.05;;;;;;;21.13;70.15;95259.56;5070117;28;20201;-63
2022/07/20 05:28:20;;;;;;;13.20;3.90;;;;;;;21.22;67.15;95315.41;5070410;28;20216;-61
2022/07/20 05:30:46;;;;;;;10.10;3.80;;;;;;;21.57;67.87;95300.94;5069680;28;20662;-62
2022/07/20 05:33:11;;;;;;;7.50;3.70;;;;;;;21.92;65.16;95353.75;5068308;28;20195;-62
2022/07/20 05:35:37;;;;;;;8.15;3.60;;;;;;;22.34;61.77;95426.38;5069320;28;20197;-62
2022/07/20 05:38:03;;;;;;;6.65;3.42;;;;;;;22.54;60.54;95441.13;5069981;28;20193;-61
2022/07/20 05:40:28;;;;;;;8.50;3.85;;;;;;;22.54;58.98;95448.13;5070107;28;20232;-62
2022/07/20 05:42:54;;;;;;;4.15;3.58;;;;;;;22.56;58.77;95441.75;5070194;28;20204;-62
2022/07/20 05:45:19;;;;;;;11.35;4.28;;;;;;;22.81;58.58;95444.81;5070067;28;20223;-62
2022/07/20 05:47:45;;;;;;;14.48;3.67;;;;;;;22.94;57.88;95457.13;5070135;28;20191;-62
2022/07/20 05:50:11;;;;;;;7.75;3.50;;;;;;;22.93;57.66;95458.09;5070079;28;20180;-62
2022/07/20 05:52:37;;;;;;;7.13;3.45;;;;;;;23.08;57.36;95445.88;5070113;28;20217;-62
2022/07/20 05:55:03;;;;;;;7.72;3.47;;;;;;;23.19;56.78;95468.72;5051973;28;20237;-62
2022/07/20 05:57:29;;;;;;;6.15;3.83;;;;;;;23.11;56.21;95480.00;5069905;28;20204;-62
2022/07/20 05:59:54;;;;;;;10.55;3.63;;;;;;;23.01;56.70;95451.00;5069773;28;20706;-62
2022/07/20 06:02:20;;;;;;;6.68;4.43;;;;;;;22.99;54.67;95504.84;5069738;28;20305;-62
2022/07/20 06:04:45;;;;;;;8.40;3.42;;;;;;;22.90;56.86;95433.34;5069625;28;20544;-61
2022/07/20 06:07:11;;;;;;;5.97;3.70;;;;;;;23.11;56.66;95438.50;5069641;28;20205;-62
2022/07/20 06:09:36;;;;;;;5.78;3.53;;;;;;;23.27;55.50;95464.19;5069695;28;20646;-62
2022/07/20 06:12:03;;;;;;;10.15;3.83;;;;;;;23.19;55.16;95479.88;5069918;28;20216;-62
2022/07/20 06:14:28;;;;;;;4.93;3.92;;;;;;;23.30;54.28;95488.97;5073354;28;20188;-62
2022/07/20 06:16:54;;;;;;;6.45;4.38;;;;;;;23.43;55.48;95464.94;5073161;28;20207;-61
2022/07/20 06:19:19;;;;;;;8.77;3.90;;;;;;;23.62;54.56;95482.44;5073327;28;20246;-62
2022/07/20 06:21:45;;;;;;;12.23;3.90;;;;;;;23.58;54.45;95484.63;5073237;28;20253;-62
2022/07/20 06:24:10;;;;;;;8.05;3.70;;;;;;;23.63;54.74;95474.47;5073184;28;20677;-63
2022/07/20 06:26:36;;;;;;;5.07;3.58;;;;;;;23.82;54.74;95478.97;5073145;28;20208;-64
2022/07/20 06:29:02;;;;;;;9.65;4.30;;;;;;;23.89;54.34;95487.63;5073172;28;20685;-62
2022/07/20 06:31:28;;;;;;;7.78;3.55;;;;;;;23.93;52.78;95521.81;5073440;28;20279;-63
2022/07/20 06:33:54;;;;;;;13.43;4.78;;;;;;;23.81;54.06;95469.59;5073198;28;20200;-62
2022/07/20 06:36:19;;;;;;;4.80;3.60;;;;;;;23.79;53.97;95470.78;5073184;28;20196;-62
2022/07/20 06:38:45;;;;;;;8.05;4.10;;;;;;;23.83;52.93;95492.78;5073140;28;20546;-62
2022/07/20 06:41:11;;;;;;;5.30;3.60;;;;;;;23.62;53.41;95488.44;5073076;28;20208;-62
2022/07/20 06:43:37;;;;;;;7.82;3.92;;;;;;;23.58;53.07;95478.63;5054796;28;20673;-63
2022/07/20 06:46:02;;;;;;;5.82;3.53;;;;;;;23.64;53.71;95452.69;5072757;28;20282;-62
2022/07/20 06:48:28;;;;;;;13.63;4.43;;;;;;;23.59;53.58;95464.66;5071423;28;20195;-63
2022/07/20 06:50:54;;;;;;;9.82;4.20;;;;;;;23.76;52.41;95486.72;5072652;28;20698;-63
2022/07/20 06:53:19;;;;;;;7.22;3.65;;;;;;;23.86;53.45;95456.03;5072681;28;20355;-63
2022/07/20 06:55:45;;;;;;;7.15;4.15;;;;;;;23.91;52.76;95485.66;5072763;28;20675;-62
2022/07/20 06:58:11;;;;;;;11.13;4.43;;;;;;;23.94;52.46;95480.06;5054664;28;20185;-63
2022/07/20 07:00:37;;;;;;;8.98;3.65;;;;;;;24.05;52.64;95471.75;5072797;28;20702;-62
2022/07/20 07:03:03;;;;;;;9.52;5.35;;;;;;;24.12;50.64;95539.34;5072471;28;20188;-63
2022/07/20 07:05:29;;;;;;;5.40;3.63;;;;;;;24.11;52.58;95462.38;5072529;28;20215;-63
2022/07/20 07:07:54;;;;;;;7.18;3.90;;;;;;;24.21;52.36;95481.03;5072441;28;20640;-63
2022/07/20 07:10:20;;;;;;;6.97;3.95;;;;;;;24.18;51.85;95486.59;5072583;28;20224;-64
2022/07/20 07:12:45;;;;;;;8.48;4.53;;;;;;;24.08;52.07;95478.34;5072401;28;20687;-62
2022/07/20 07:15:11;;;;;;;9.73;4.32;;;;;;;24.13;51.03;95499.38;5072491;28;20644;-62
2022/07/20 07:17:37;;;;;;;7.80;4.10;;;;;;;24.37;51.24;95505.88;5072512;28;20559;-62
2022/07/20 07:20:04;;;;;;;5.55;3.90;;;;;;;24.47;50.60;95514.13;5072304;28;20624;-62
2022/07/20 07:22:30;;;;;;;5.45;3.22;;;;;;;24.60;50.75;95493.38;5072298;28;20185;-63
2022/07/20 07:24:57;;;;;;;7.10;3.20;;;;;;;24.68;50.78;95508.81;5072073;28;20181;-62
2022/07/20 07:27:22;;;;;;;11.65;3.67;;;;;;;24.79;50.66;95511.69;5072228;28;20205;-62
2022/07/20 07:29:48;;;;;;;9.63;3.90;;;;;;;24.95;50.58;95497.50;5072109;28;20188;-63
2022/07/20 07:32:13;;;;;;;6.03;3.70;;;;;;;24.95;50.24;95500.91;5072127;28;20216;-62
2022/07/20 07:34:39;;;;;;;4.90;3.50;;;;;;;25.11;49.45;95517.16;5072317;28;20269;-62
2022/07/20 07:37:04;;;;;;;10.05;3.67;;;;;;;25.25;47.87;95570.84;5053843;28;20656;-63
2022/07/20 07:39:30;;;;;;;9.52;3.53;;;;;;;25.24;49.36;95519.78;5071890;28;20726;-61
2022/07/20 07:41:56;;;;;;;7.70;3.70;;;;;;;25.32;49.61;95506.56;5072473;28;20207;-62
2022/07/20 07:44:21;;;;;;;7.35;3.38;;;;;;;25.40;49.49;95514.19;5072150;28;20268;-62
2022/07/20 07:46:47;;;;;;;8.90;3.70;;;;;;;25.42;48.14;95546.88;5054014;28;20215;-62
2022/07/20 07:49:12;;;;;;;9.50;3.17;;;;;;;25.54;47.30;95568.72;5071800;28;20224;-62
2022/07/20 07:51:38;;;;;;;5.57;2.63;;;;;;;25.62;48.43;95518.22;5071868;28;20240;-62
2022/07/20 07:54:05;;;;;;;11.32;3.15;;;;;;;25.79;45.57;95469.91;5071783;28;20193;-63
2022/07/20 07:56:30;;;;;;;9.18;3.10;;;;;;;25.52;47.73;95382.38;5071767;28;20746;-62
2022/07/20 07:58:56;;;;;;;5.57;2.92;;;;;;;25.51;48.30;95365.16;5053693;28;20291;-63
2022/07/20 08:01:22;;;;;;;7.28;3.10;;;;;;;25.76;48.34;95361.69;5071844;28;20207;-62
2022/07/20 08:03:47;;;;;;;9.98;3.28;;;;;;;25.80;47.53;95373.28;5071634;28;20196;-62
2022/07/20 08:06:13;;;;;;;9.75;3.10;;;;;;;26.01;47.47;95372.22;5079149;22;20228;-62
2022/07/20 08:08:38;;;;;;;6.40;3.13;;;;;;;26.21;47.42;95365.13;5071639;28;20742;-62
2022/07/20 08:11:04;;;;;;;4.78;2.78;;;;;;;26.37;46.90;95372.47;5071320;28;20213;-62
2022/07/20 08:13:30;;;;;;;11.38;3.00;;;;;;;26.52;45.81;95390.44;5071785;28;20211;-64
2022/07/20 08:15:56;;;;;;;14.90;3.10;;;;;;;26.50;45.38;95388.03;5071445;28;20247;-62
2022/07/20 08:18:21;;;;;;;5.45;2.42;;;;;;;26.61;40.50;95449.97;5071372;28;20188;-62
2022/07/20 08:20:47;;;;;;;5.28;2.53;;;;;;;26.44;44.98;95341.91;5071640;28;20280;-62
2022/07/20 08:23:13;;;;;;;4.90;2.45;;;;;;;26.46;45.37;95332.06;5071401;28;20185;-62
2022/07/20 08:25:39;;;;;;;3.65;2.50;;;;;;;26.51;43.95;95363.56;5071530;28;20582;-62
2022/07/20 08:28:18;;;;;;;5.82;2.42;;;;;;;26.79;42.44;95391.06;5071446;28;20659;-63
2022/07/20 08:30:46;;;;;;;6.82;2.28;;;;;;;26.84;39.92;95440.84;5071068;28;20236;-64
2022/07/20 08:33:12;;;;;;;7.20;2.67;;;;;;;26.55;39.83;95436.97;5071120;28;20183;-62
2022/07/20 08:35:39;;;;;;;5.32;2.60;;;;;;;26.34;39.30;95432.06;5070408;28;20205;-62
2022/07/20 08:38:05;;;;;;;7.55;3.03;;;;;;;26.43;39.67;95417.78;5071007;28;20216;-63
2022/07/20 08:40:31;;;;;;;4.72;3.42;;;;;;;26.33;38.87;95433.88;5071190;28;20270;-61
2022/07/20 08:42:56;;;;;;;6.85;3.17;;;;;;;26.21;39.43;95403.44;5071115;28;20208;-62
2022/07/20 08:45:23;;;;;;;5.35;2.42;;;;;;;26.21;40.88;95369.53;5070962;28;20205;-63
2022/07/20 08:47:50;;;;;;;8.30;2.67;;;;;;;25.98;39.33;95398.69;5071124;28;20671;-64
2022/07/20 08:50:25;;;;;;;8.45;2.67;;;;;;;26.15;41.22;95347.72;5052866;28;20189;-63
2022/07/20 08:52:52;;;;;;;3.53;1.80;;;;;;;26.27;42.01;95330.41;5052785;28;20300;-62
2022/07/20 08:55:19;;;;;;;6.90;2.17;;;;;;;26.39;40.17;95362.63;5070929;28;20235;-62
2022/07/20 08:57:44;;;;;;;8.55;2.40;;;;;;;26.61;39.89;95376.13;5070753;28;20640;-62
2022/07/20 09:00:11;;;;;;;9.00;1.95;;;;;;;26.67;38.78;95382.31;5070654;28;20200;-61
2022/07/20 09:03:01;;;;;;;2.70;1.70;;;;;;;26.85;37.96;95408.50;5070825;28;20212;-63
2022/07/20 09:05:28;;;;;;;5.28;1.88;;;;;;;26.68;38.72;95368.25;5070774;28;20208;-66
2022/07/20 09:07:56;;;;;;;8.23;1.92;;;;;;;26.69;37.65;95393.31;5070679;28;20181;-62
2022/07/20 09:10:26;;;;;;;3.00;1.92;;;;;;;26.75;37.66;95388.09;5070866;28;20220;-62
2022/07/20 09:13:01;;;;;;;5.35;1.70;;;;;;;26.90;38.23;95374.75;5070500;28;20239;-62
2022/07/20 09:15:39;;;;;;;1.70;1.60;;;;;;;26.97;38.96;95347.56;5070438;28;20204;-62
2022/07/20 09:18:20;;;;;;;4.85;1.75;;;;;;;27.09;39.29;95329.41;5070422;28;20208;-63
2022/07/20 09:20:46;;;;;;;4.70;2.17;;;;;;;27.35;37.39;95384.06;5070587;28;20209;-62
2022/07/20 09:23:21;;;;;;;2.95;1.58;;;;;;;27.49;37.81;95369.84;5070300;28;20216;-62
2022/07/20 09:26:16;;;;;;;4.00;1.63;;;;;;;27.58;35.97;95404.31;5070614;28;20244;-63
2022/07/20 09:28:52;;;;;;;2.15;1.60;;;;;;;27.62;37.47;95359.25;5070306;28;20193;-62
2022/07/20 09:31:26;;;;;;;3.50;2.05;;;;;;;27.69;37.12;95362.59;5070716;28;20223;-62
2022/07/20 09:34:12;;;;;;;3.55;1.60;;;;;;;27.80;37.66;95358.44;5070403;28;20212;-62
2022/07/20 09:36:43;;;;;;;1.90;1.67;;;;;;;28.04;35.99;95381.09;5070360;28;20217;-61
2022/07/20 09:39:18;;;;;;;2.20;1.40;;;;;;;28.09;35.94;95369.00;5070320;28;20208;-62
2022/07/20 09:41:56;;;;;;;4.65;1.55;;;;;;;28.11;36.99;95361.72;5070024;28;20269;-62
2022/07/20 09:44:30;;;;;;;3.42;1.52;;;;;;;28.43;37.94;95319.63;5068819;28;20227;-61
2022/07/20 09:46:57;;;;;;;6.97;1.73;;;;;;;28.12;34.22;95399.91;5070220;28;20203;-62
2022/07/20 09:49:31;;;;;;;2.15;1.50;;;;;;;28.08;33.74;95396.16;5069996;28;20188;-62
2022/07/20 09:51:58;;;;;;;5.47;1.70;;;;;;;28.21;35.12;95356.75;5069875;28;20216;-61
2022/07/20 09:54:24;;;;;;;2.67;1.50;;;;;;;28.40;38.45;95286.06;5069945;28;20671;-62
2022/07/20 09:56:51;;;;;;;5.25;1.65;;;;;;;28.59;37.09;95304.09;5070023;28;20215;-61
2022/07/20 09:59:18;;;;;;;6.10;1.73;;;;;;;28.83;37.43;95312.78;5070270;28;20268;-61
2022/07/20 10:01:53;;;;;;;5.40;1.90;;;;;;;29.03;36.02;95339.44;5069880;28;20217;-62
2022/07/20 10:04:21;;;;;;;2.20;1.70;;;;;;;29.40;35.38;95345.28;5069986;28;20188;-63
2022/07/20 10:06:49;;;;;;;1.90;1.58;;;;;;;29.58;34.21;95374.00;5069729;28;20212;-63
2022/07/20 10:09:16;;;;;;;4.75;2.15;;;;;;;29.69;35.66;95321.56;5069724;28;20283;-65
2022/07/20 10:11:43;;;;;;;3.80;2.13;;;;;;;29.79;34.59;95345.38;5069615;28;20217;-62
2022/07/20 10:14:09;;;;;;;4.18;2.13;;;;;;;29.88;32.41;95395.63;5069653;28;20255;-62
2022/07/20 10:16:49;;;;;;;2.28;1.80;;;;;;;29.58;33.16;95353.00;5051578;28;20272;-62
2022/07/20 10:19:15;;;;;;;2.15;1.27;;;;;;;29.66;31.99;95376.25;5070005;28;20192;-62
2022/07/20 10:21:45;;;;;;;3.08;1.50;;;;;;;29.19;33.08;95343.25;5051405;28;20223;-61
2022/07/20 10:24:14;;;;;;;2.20;1.15;;;;;;;29.02;33.36;95336.03;5069638;28;20181;-62
2022/07/20 10:26:39;;;;;;;2.55;1.13;;;;;;;28.94;33.47;95332.97;5051607;28;20217;-61
2022/07/20 10:29:05;;;;;;;4.95;1.92;;;;;;;28.73;32.82;95334.28;5069520;28;20189;-61
2022/07/20 10:31:53;;;;;;;4.55;1.50;;;;;;;28.85;32.85;95322.00;5077094;22;20347;-61
2022/07/20 10:34:38;;;;;;;5.82;1.63;;;;;;;28.91;32.76;95334.19;5068181;28;20188;-62
2022/07/20 10:37:25;;;;;;;3.33;1.70;;;;;;;28.88;32.87;95326.00;5069304;28;20213;-61
2022/07/20 10:39:56;;;;;;;3.90;1.55;;;;;;;29.29;32.66;95325.16;5069623;28;20231;-62
2022/07/20 10:42:25;;;;;;;4.63;1.63;;;;;;;29.44;31.50;95341.97;5069430;28;20269;-62
2022/07/20 10:44:51;;;;;;;3.10;1.27;;;;;;;28.99;33.03;95302.44;5069444;28;20185;-62
2022/07/20 10:47:46;;;;;;;4.03;1.60;;;;;;;29.43;32.37;95316.78;5069435;28;20208;-61
2022/07/20 10:50:21;;;;;;;3.65;1.60;;;;;;;29.84;31.89;95321.88;5040012;28;20755;-61
2022/07/20 10:52:50;;;;;;;4.95;1.60;;;;;;;29.79;31.56;95319.16;5069124;28;20627;-61
2022/07/20 10:55:33;;;;;;;5.70;1.40;;;;;;;29.96;31.77;95319.22;5069336;28;20651;-62
2022/07/20 10:58:11;;;;;;;4.13;1.75;;;;;;;29.89;31.08;95328.25;5051792;28;20188;-61
2022/07/20 11:00:39;;;;;;;1.40;1.30;;;;;;;29.66;30.86;95322.00;5073176;28;20676;-62
2022/07/20 11:03:14;;;;;;;2.20;1.30;;;;;;;29.74;32.38;95287.59;5072936;28;20188;-62
2022/07/20 11:05:40;;;;;;;3.97;1.70;;;;;;;29.73;31.73;95301.75;5073034;28;20261;-62
2022/07/20 11:08:07;;;;;;;5.70;1.60;;;;;;;29.81;31.90;95290.88;5072843;28;20185;-61
2022/07/20 11:10:33;;;;;;;3.55;1.60;;;;;;;29.48;32.29;95267.09;5072792;28;20205;-62
2022/07/20 11:13:05;;;;;;;2.92;1.50;;;;;;;29.24;32.59;95260.31;5072625;28;20228;-62
2022/07/20 11:15:39;;;;;;;2.42;1.70;;;;;;;28.69;32.82;95265.09;5081435;22;20228;-62
2022/07/20 11:18:06;;;;;;;2.88;1.75;;;;;;;28.93;32.97;95247.56;5051400;28;20646;-63
2022/07/20 11:20:32;;;;;;;2.60;1.40;;;;;;;29.48;34.25;95221.75;5052460;28;20210;-61
2022/07/20 11:22:58;;;;;;;3.72;1.67;;;;;;;29.92;31.66;95283.22;5052848;28;20276;-62
2022/07/20 11:25:24;;;;;;;3.95;1.85;;;;;;;30.16;30.67;95293.34;5052477;28;20322;-62
2022/07/20 11:28:03;;;;;;;3.08;1.85;;;;;;;30.58;32.09;95260.50;5052745;28;20212;-62
2022/07/20 11:30:34;;;;;;;6.35;2.08;;;;;;;30.58;33.19;95243.97;5051131;28;20687;-62
2022/07/20 11:33:00;;;;;;;2.00;1.35;;;;;;;31.11;31.03;95296.03;5052346;28;20214;-62
2022/07/20 11:35:25;;;;;;;2.40;1.73;;;;;;;31.53;31.66;95270.84;5052378;28;20213;-61
2022/07/20 11:37:52;;;;;;;2.55;2.10;;;;;;;31.59;31.17;95276.97;5051403;28;20207;-62